sensor_id;sensor_type;location;lat;lon;timestamp;temperature;humidity
38456;DHT22;24237;50.106;20.014;2022-08-23T00:00:44;20.70;99.90
38456;DHT22;24237;50.106;20.014;2022-08-23T00:03:11;20.70;99.90
38456;DHT22;24237;50.106;20.014;2022-08-23T00:05:36;20.60;99.90
38456;DHT22;24237;50.106;20.014;2022-08-23T00:08:03;20.50;99.90
38456;DHT22;24237;50.106;20.014;2022-08-23T00:10:28;20.50;99.90
38456;DHT22;24237;50.106;20.014;2022-08-23T00:12:54;20.50;99.90
38456;DHT22;24237;50.106;20.014;2022-08-23T00:15:20;20.50;99.90
38456;DHT22;24237;50.106;20.014;2022-08-23T00:17:46;20.60;99.90
38456;DHT22;24237;50.106;20.014;2022-08-23T00:20:18;20.80;99.90
38456;DHT22;24237;50.106;20.014;2022-08-23T00:22:44;20.80;99.90
38456;DHT22;24237;50.106;20.014;2022-08-23T00:25:11;20.90;99.90
38456;DHT22;24237;50.106;20.014;2022-08-23T00:27:38;20.80;99.90
38456;DHT22;24237;50.106;20.014;2022-08-23T00:30:06;20.90;99.90
38456;DHT22;24237;50.106;20.014;2022-08-23T00:32:34;20.80;99.90
38456;DHT22;24237;50.106;20.014;2022-08-23T00:35:00;21.10;99.90
38456;DHT22;24237;50.106;20.014;2022-08-23T00:37:27;20.90;99.90
38456;DHT22;24237;50.106;20.014;2022-08-23T00:39:53;20.80;99.90
38456;DHT22;24237;50.106;20.014;2022-08-23T00:42:49;21.20;99.90
38456;DHT22;24237;50.106;20.014;2022-08-23T00:48:47;21.10;99.90
38456;DHT22;24237;50.106;20.014;2022-08-23T00:51:27;20.80;99.90
38456;DHT22;24237;50.106;20.014;2022-08-23T00:53:58;20.80;99.90
38456;DHT22;24237;50.106;20.014;2022-08-23T00:56:28;20.80;99.90
38456;DHT22;24237;50.106;20.014;2022-08-23T00:58:59;20.80;99.90
38456;DHT22;24237;50.106;20.014;2022-08-23T01:01:34;20.80;99.90
38456;DHT22;24237;50.106;20.014;2022-08-23T01:04:00;20.90;99.90
38456;DHT22;24237;50.106;20.014;2022-08-23T01:06:34;20.90;99.90
38456;DHT22;24237;50.106;20.014;2022-08-23T01:09:12;20.90;99.90
38456;DHT22;24237;50.106;20.014;2022-08-23T01:11:56;20.90;99.90
38456;DHT22;24237;50.106;20.014;2022-08-23T01:14:39;20.80;99.90
38456;DHT22;24237;50.106;20.014;2022-08-23T01:17:16;20.70;99.90
38456;DHT22;24237;50.106;20.014;2022-08-23T01:19:50;20.70;99.90
38456;DHT22;24237;50.106;20.014;2022-08-23T01:22:30;20.80;99.90
38456;DHT22;24237;50.106;20.014;2022-08-23T01:25:16;20.90;99.90
38456;DHT22;24237;50.106;20.014;2022-08-23T01:27:45;20.80;99.90
38456;DHT22;24237;50.106;20.014;2022-08-23T01:30:13;20.80;99.90
38456;DHT22;24237;50.106;20.014;2022-08-23T01:32:47;21.00;99.90
38456;DHT22;24237;50.106;20.014;2022-08-23T01:35:14;20.90;99.90
38456;DHT22;24237;50.106;20.014;2022-08-23T01:37:42;20.90;99.90
38456;DHT22;24237;50.106;20.014;2022-08-23T01:40:08;20.70;99.90
38456;DHT22;24237;50.106;20.014;2022-08-23T01:42:37;20.50;99.90
38456;DHT22;24237;50.106;20.014;2022-08-23T01:45:14;20.40;99.90
38456;DHT22;24237;50.106;20.014;2022-08-23T01:47:42;20.50;99.90
38456;DHT22;24237;50.106;20.014;2022-08-23T01:50:09;20.50;99.90
38456;DHT22;24237;50.106;20.014;2022-08-23T01:52:37;20.50;99.90
38456;DHT22;24237;50.106;20.014;2022-08-23T01:55:06;20.50;99.90
38456;DHT22;24237;50.106;20.014;2022-08-23T01:57:33;20.50;99.90
38456;DHT22;24237;50.106;20.014;2022-08-23T02:00:06;20.60;99.90
38456;DHT22;24237;50.106;20.014;2022-08-23T02:02:38;20.60;99.90
38456;DHT22;24237;50.106;20.014;2022-08-23T02:05:05;20.60;99.90
38456;DHT22;24237;50.106;20.014;2022-08-23T02:07:31;20.60;99.90
38456;DHT22;24237;50.106;20.014;2022-08-23T02:09:57;20.70;99.90
38456;DHT22;24237;50.106;20.014;2022-08-23T02:12:23;20.50;99.90
38456;DHT22;24237;50.106;20.014;2022-08-23T02:14:48;20.70;99.90
38456;DHT22;24237;50.106;20.014;2022-08-23T02:17:14;20.70;99.90
38456;DHT22;24237;50.106;20.014;2022-08-23T02:19:48;20.60;99.90
38456;DHT22;24237;50.106;20.014;2022-08-23T02:22:31;20.50;99.90
38456;DHT22;24237;50.106;20.014;2022-08-23T02:27:50;20.60;99.90
38456;DHT22;24237;50.106;20.014;2022-08-23T02:30:15;20.50;99.90
38456;DHT22;24237;50.106;20.014;2022-08-23T02:32:41;20.60;99.90
38456;DHT22;24237;50.106;20.014;2022-08-23T02:35:07;20.60;99.90
38456;DHT22;24237;50.106;20.014;2022-08-23T02:37:44;20.50;99.90
38456;DHT22;24237;50.106;20.014;2022-08-23T02:40:10;20.70;99.90
38456;DHT22;24237;50.106;20.014;2022-08-23T02:42:42;20.70;99.90
38456;DHT22;24237;50.106;20.014;2022-08-23T02:45:11;20.60;99.90
38456;DHT22;24237;50.106;20.014;2022-08-23T02:47:37;20.50;99.90
38456;DHT22;24237;50.106;20.014;2022-08-23T02:50:12;20.70;99.90
38456;DHT22;24237;50.106;20.014;2022-08-23T02:52:38;20.60;99.90
38456;DHT22;24237;50.106;20.014;2022-08-23T02:55:05;20.80;99.90
38456;DHT22;24237;50.106;20.014;2022-08-23T02:57:33;20.80;99.90
38456;DHT22;24237;50.106;20.014;2022-08-23T02:59:59;20.50;99.90
38456;DHT22;24237;50.106;20.014;2022-08-23T03:02:24;20.50;99.90
38456;DHT22;24237;50.106;20.014;2022-08-23T03:05:07;20.60;99.90
38456;DHT22;24237;50.106;20.014;2022-08-23T03:07:36;20.50;99.90
38456;DHT22;24237;50.106;20.014;2022-08-23T03:10:03;20.50;99.90
38456;DHT22;24237;50.106;20.014;2022-08-23T03:12:30;20.60;99.90
38456;DHT22;24237;50.106;20.014;2022-08-23T03:14:57;20.60;99.90
38456;DHT22;24237;50.106;20.014;2022-08-23T03:17:22;20.60;99.90
38456;DHT22;24237;50.106;20.014;2022-08-23T03:19:51;20.60;99.90
38456;DHT22;24237;50.106;20.014;2022-08-23T03:22:18;20.70;99.90
38456;DHT22;24237;50.106;20.014;2022-08-23T03:24:44;20.80;99.90
38456;DHT22;24237;50.106;20.014;2022-08-23T03:27:10;20.60;99.90
38456;DHT22;24237;50.106;20.014;2022-08-23T03:29:36;20.60;99.90
38456;DHT22;24237;50.106;20.014;2022-08-23T03:32:03;20.50;99.90
38456;DHT22;24237;50.106;20.014;2022-08-23T03:34:29;20.50;99.90
38456;DHT22;24237;50.106;20.014;2022-08-23T03:36:58;20.60;99.90
38456;DHT22;24237;50.106;20.014;2022-08-23T03:39:24;20.50;99.90
38456;DHT22;24237;50.106;20.014;2022-08-23T03:41:52;20.70;99.90
38456;DHT22;24237;50.106;20.014;2022-08-23T03:44:18;20.90;99.90
38456;DHT22;24237;50.106;20.014;2022-08-23T03:46:44;20.80;99.90
38456;DHT22;24237;50.106;20.014;2022-08-23T03:49:12;20.70;99.90
38456;DHT22;24237;50.106;20.014;2022-08-23T03:51:38;20.60;99.90
38456;DHT22;24237;50.106;20.014;2022-08-23T03:54:27;20.60;99.90
38456;DHT22;24237;50.106;20.014;2022-08-23T03:57:02;20.60;99.90
38456;DHT22;24237;50.106;20.014;2022-08-23T03:59:33;20.70;99.90
38456;DHT22;24237;50.106;20.014;2022-08-23T04:01:59;20.80;99.90
38456;DHT22;24237;50.106;20.014;2022-08-23T04:04:25;20.70;99.90
38456;DHT22;24237;50.106;20.014;2022-08-23T04:06:52;20.80;99.90
38456;DHT22;24237;50.106;20.014;2022-08-23T04:09:18;20.80;99.90
38456;DHT22;24237;50.106;20.014;2022-08-23T04:11:44;20.90;99.90
38456;DHT22;24237;50.106;20.014;2022-08-23T04:14:10;20.70;99.90
38456;DHT22;24237;50.106;20.014;2022-08-23T04:16:37;20.70;99.90
38456;DHT22;24237;50.106;20.014;2022-08-23T04:19:05;20.60;99.90
38456;DHT22;24237;50.106;20.014;2022-08-23T04:21:31;20.60;99.90
38456;DHT22;24237;50.106;20.014;2022-08-23T04:23:57;20.80;99.90
38456;DHT22;24237;50.106;20.014;2022-08-23T04:26:23;21.10;99.90
38456;DHT22;24237;50.106;20.014;2022-08-23T04:28:49;21.00;99.90
38456;DHT22;24237;50.106;20.014;2022-08-23T04:31:15;20.90;99.90
38456;DHT22;24237;50.106;20.014;2022-08-23T04:33:50;21.00;99.90
38456;DHT22;24237;50.106;20.014;2022-08-23T04:36:15;20.80;99.90
38456;DHT22;24237;50.106;20.014;2022-08-23T04:38:47;20.90;99.90
38456;DHT22;24237;50.106;20.014;2022-08-23T04:41:14;21.10;99.90
38456;DHT22;24237;50.106;20.014;2022-08-23T04:43:58;21.10;99.90
38456;DHT22;24237;50.106;20.014;2022-08-23T04:46:24;20.90;99.90
38456;DHT22;24237;50.106;20.014;2022-08-23T04:48:50;20.80;99.90
38456;DHT22;24237;50.106;20.014;2022-08-23T04:51:19;20.70;99.90
38456;DHT22;24237;50.106;20.014;2022-08-23T04:53:46;20.90;99.90
38456;DHT22;24237;50.106;20.014;2022-08-23T04:56:12;21.00;99.90
38456;DHT22;24237;50.106;20.014;2022-08-23T04:58:37;21.00;99.90
38456;DHT22;24237;50.106;20.014;2022-08-23T05:01:05;21.10;99.90
38456;DHT22;24237;50.106;20.014;2022-08-23T05:03:35;21.20;99.90
38456;DHT22;24237;50.106;20.014;2022-08-23T05:06:01;21.30;99.90
38456;DHT22;24237;50.106;20.014;2022-08-23T05:08:29;21.20;99.90
38456;DHT22;24237;50.106;20.014;2022-08-23T05:10:55;21.30;99.90
38456;DHT22;24237;50.106;20.014;2022-08-23T05:13:23;21.30;99.90
38456;DHT22;24237;50.106;20.014;2022-08-23T05:15:50;21.40;99.90
38456;DHT22;24237;50.106;20.014;2022-08-23T05:18:16;21.50;99.90
38456;DHT22;24237;50.106;20.014;2022-08-23T05:20:42;21.40;99.90
38456;DHT22;24237;50.106;20.014;2022-08-23T05:23:08;21.30;99.90
38456;DHT22;24237;50.106;20.014;2022-08-23T05:25:33;21.40;99.90
38456;DHT22;24237;50.106;20.014;2022-08-23T05:28:16;21.50;99.90
38456;DHT22;24237;50.106;20.014;2022-08-23T05:30:42;21.60;99.90
38456;DHT22;24237;50.106;20.014;2022-08-23T05:33:07;21.70;99.90
38456;DHT22;24237;50.106;20.014;2022-08-23T05:35:33;21.90;99.90
38456;DHT22;24237;50.106;20.014;2022-08-23T05:37:59;21.70;99.90
38456;DHT22;24237;50.106;20.014;2022-08-23T05:40:26;21.80;99.90
38456;DHT22;24237;50.106;20.014;2022-08-23T05:42:52;21.60;99.90
38456;DHT22;24237;50.106;20.014;2022-08-23T05:45:18;21.80;99.90
38456;DHT22;24237;50.106;20.014;2022-08-23T05:47:43;21.70;99.90
38456;DHT22;24237;50.106;20.014;2022-08-23T05:50:11;21.80;99.90
38456;DHT22;24237;50.106;20.014;2022-08-23T05:52:36;21.70;99.90
38456;DHT22;24237;50.106;20.014;2022-08-23T05:55:03;21.70;99.90
38456;DHT22;24237;50.106;20.014;2022-08-23T05:57:29;21.50;99.90
38456;DHT22;24237;50.106;20.014;2022-08-23T05:59:55;21.70;99.90
38456;DHT22;24237;50.106;20.014;2022-08-23T06:02:20;21.80;99.90
38456;DHT22;24237;50.106;20.014;2022-08-23T06:04:46;21.90;99.90
38456;DHT22;24237;50.106;20.014;2022-08-23T06:07:12;21.90;99.90
38456;DHT22;24237;50.106;20.014;2022-08-23T06:09:37;22.10;99.90
38456;DHT22;24237;50.106;20.014;2022-08-23T06:12:03;22.30;99.90
38456;DHT22;24237;50.106;20.014;2022-08-23T06:14:29;22.40;99.90
38456;DHT22;24237;50.106;20.014;2022-08-23T06:16:54;22.60;99.90
38456;DHT22;24237;50.106;20.014;2022-08-23T06:19:23;22.80;99.90
38456;DHT22;24237;50.106;20.014;2022-08-23T06:21:49;22.90;99.90
38456;DHT22;24237;50.106;20.014;2022-08-23T06:24:16;22.90;99.90
38456;DHT22;24237;50.106;20.014;2022-08-23T06:26:43;23.00;99.90
38456;DHT22;24237;50.106;20.014;2022-08-23T06:29:12;23.30;99.90
38456;DHT22;24237;50.106;20.014;2022-08-23T06:31:43;23.60;99.90
38456;DHT22;24237;50.106;20.014;2022-08-23T06:34:31;23.60;99.90
38456;DHT22;24237;50.106;20.014;2022-08-23T06:37:00;23.50;99.90
38456;DHT22;24237;50.106;20.014;2022-08-23T06:39:28;23.40;99.90
38456;DHT22;24237;50.106;20.014;2022-08-23T06:42:13;23.20;99.90
38456;DHT22;24237;50.106;20.014;2022-08-23T06:44:40;23.40;99.90
38456;DHT22;24237;50.106;20.014;2022-08-23T06:47:07;23.50;99.90
38456;DHT22;24237;50.106;20.014;2022-08-23T06:49:32;23.50;99.90
38456;DHT22;24237;50.106;20.014;2022-08-23T06:51:59;23.30;99.90
38456;DHT22;24237;50.106;20.014;2022-08-23T06:54:28;23.00;99.90
38456;DHT22;24237;50.106;20.014;2022-08-23T06:56:56;22.90;99.90
38456;DHT22;24237;50.106;20.014;2022-08-23T06:59:22;23.00;99.90
38456;DHT22;24237;50.106;20.014;2022-08-23T07:02:03;23.00;99.90
38456;DHT22;24237;50.106;20.014;2022-08-23T07:04:34;23.00;99.90
38456;DHT22;24237;50.106;20.014;2022-08-23T07:07:01;23.30;99.90
38456;DHT22;24237;50.106;20.014;2022-08-23T07:09:27;23.30;99.90
38456;DHT22;24237;50.106;20.014;2022-08-23T07:11:53;23.40;99.90
38456;DHT22;24237;50.106;20.014;2022-08-23T07:14:21;23.60;99.90
38456;DHT22;24237;50.106;20.014;2022-08-23T07:17:05;23.80;99.90
38456;DHT22;24237;50.106;20.014;2022-08-23T07:19:32;23.90;99.90
38456;DHT22;24237;50.106;20.014;2022-08-23T07:21:59;24.50;99.90
38456;DHT22;24237;50.106;20.014;2022-08-23T07:24:27;24.50;99.90
38456;DHT22;24237;50.106;20.014;2022-08-23T07:26:52;24.50;99.90
38456;DHT22;24237;50.106;20.014;2022-08-23T07:29:19;24.60;99.90
38456;DHT22;24237;50.106;20.014;2022-08-23T07:31:51;24.40;99.90
38456;DHT22;24237;50.106;20.014;2022-08-23T07:34:17;24.40;99.90
38456;DHT22;24237;50.106;20.014;2022-08-23T07:36:44;24.30;99.90
38456;DHT22;24237;50.106;20.014;2022-08-23T07:39:11;24.40;99.90
38456;DHT22;24237;50.106;20.014;2022-08-23T07:41:39;24.40;99.90
38456;DHT22;24237;50.106;20.014;2022-08-23T07:44:07;24.60;99.90
38456;DHT22;24237;50.106;20.014;2022-08-23T07:46:34;24.70;99.90
38456;DHT22;24237;50.106;20.014;2022-08-23T07:49:01;24.80;99.90
38456;DHT22;24237;50.106;20.014;2022-08-23T07:51:29;24.80;99.90
38456;DHT22;24237;50.106;20.014;2022-08-23T07:53:56;24.90;99.90
38456;DHT22;24237;50.106;20.014;2022-08-23T07:56:22;24.90;99.90
38456;DHT22;24237;50.106;20.014;2022-08-23T07:58:50;25.20;99.90
38456;DHT22;24237;50.106;20.014;2022-08-23T08:01:26;25.20;99.90
38456;DHT22;24237;50.106;20.014;2022-08-23T08:03:53;25.20;99.90
38456;DHT22;24237;50.106;20.014;2022-08-23T08:06:27;25.40;99.90
38456;DHT22;24237;50.106;20.014;2022-08-23T08:08:54;25.50;99.90
38456;DHT22;24237;50.106;20.014;2022-08-23T08:11:22;25.60;99.90
38456;DHT22;24237;50.106;20.014;2022-08-23T08:13:53;25.40;99.90
38456;DHT22;24237;50.106;20.014;2022-08-23T08:16:43;25.50;99.90
38456;DHT22;24237;50.106;20.014;2022-08-23T08:19:15;25.50;99.90
38456;DHT22;24237;50.106;20.014;2022-08-23T08:21:42;25.30;99.90
38456;DHT22;24237;50.106;20.014;2022-08-23T08:24:11;25.70;99.90
38456;DHT22;24237;50.106;20.014;2022-08-23T08:26:38;26.00;99.90
38456;DHT22;24237;50.106;20.014;2022-08-23T08:29:08;26.30;99.90
38456;DHT22;24237;50.106;20.014;2022-08-23T08:31:37;26.00;99.90
38456;DHT22;24237;50.106;20.014;2022-08-23T08:34:07;25.90;99.90
38456;DHT22;24237;50.106;20.014;2022-08-23T08:36:43;25.70;99.90
38456;DHT22;24237;50.106;20.014;2022-08-23T08:39:16;25.70;99.90
38456;DHT22;24237;50.106;20.014;2022-08-23T08:52:39;26.60;99.90
38456;DHT22;24237;50.106;20.014;2022-08-23T08:55:36;26.50;99.90
38456;DHT22;24237;50.106;20.014;2022-08-23T08:58:16;26.20;99.90
38456;DHT22;24237;50.106;20.014;2022-08-23T09:00:43;26.40;99.90
38456;DHT22;24237;50.106;20.014;2022-08-23T09:03:16;26.80;99.90
38456;DHT22;24237;50.106;20.014;2022-08-23T09:06:15;27.00;99.90
38456;DHT22;24237;50.106;20.014;2022-08-23T09:18:52;26.70;99.90
38456;DHT22;24237;50.106;20.014;2022-08-23T09:21:42;26.60;99.90
38456;DHT22;24237;50.106;20.014;2022-08-23T09:24:11;26.70;99.90
38456;DHT22;24237;50.106;20.014;2022-08-23T09:26:43;26.70;99.90
38456;DHT22;24237;50.106;20.014;2022-08-23T09:29:23;26.50;99.90
38456;DHT22;24237;50.106;20.014;2022-08-23T09:32:30;26.90;99.90
38456;DHT22;24237;50.106;20.014;2022-08-23T09:35:22;26.70;99.90
38456;DHT22;24237;50.106;20.014;2022-08-23T09:37:58;26.80;99.90
38456;DHT22;24237;50.106;20.014;2022-08-23T09:40:37;26.70;99.90
38456;DHT22;24237;50.106;20.014;2022-08-23T09:43:13;26.90;99.90
38456;DHT22;24237;50.106;20.014;2022-08-23T09:48:30;26.90;99.90
38456;DHT22;24237;50.106;20.014;2022-08-23T09:51:13;27.10;99.90
38456;DHT22;24237;50.106;20.014;2022-08-23T09:53:51;27.40;99.90
38456;DHT22;24237;50.106;20.014;2022-08-23T09:56:25;27.70;99.90
38456;DHT22;24237;50.106;20.014;2022-08-23T09:58:51;27.90;99.90
38456;DHT22;24237;50.106;20.014;2022-08-23T10:01:31;27.80;99.90
38456;DHT22;24237;50.106;20.014;2022-08-23T10:04:11;27.60;99.90
38456;DHT22;24237;50.106;20.014;2022-08-23T10:06:44;27.20;99.90
38456;DHT22;24237;50.106;20.014;2022-08-23T10:09:30;27.40;99.90
38456;DHT22;24237;50.106;20.014;2022-08-23T10:11:57;27.70;99.90
38456;DHT22;24237;50.106;20.014;2022-08-23T10:14:25;28.30;99.90
38456;DHT22;24237;50.106;20.014;2022-08-23T10:19:58;28.00;99.90
38456;DHT22;24237;50.106;20.014;2022-08-23T10:22:40;27.70;99.90
38456;DHT22;24237;50.106;20.014;2022-08-23T10:25:42;27.70;99.90
38456;DHT22;24237;50.106;20.014;2022-08-23T10:31:44;28.10;99.90
38456;DHT22;24237;50.106;20.014;2022-08-23T10:37:27;28.40;99.90
38456;DHT22;24237;50.106;20.014;2022-08-23T10:40:02;28.30;99.90
38456;DHT22;24237;50.106;20.014;2022-08-23T10:45:37;28.70;99.90
38456;DHT22;24237;50.106;20.014;2022-08-23T10:48:13;28.50;99.90
38456;DHT22;24237;50.106;20.014;2022-08-23T10:50:45;28.40;99.90
38456;DHT22;24237;50.106;20.014;2022-08-23T10:53:15;28.20;99.90
38456;DHT22;24237;50.106;20.014;2022-08-23T10:56:02;28.30;99.90
38456;DHT22;24237;50.106;20.014;2022-08-23T11:01:22;28.20;99.90
38456;DHT22;24237;50.106;20.014;2022-08-23T11:06:59;28.60;99.90
38456;DHT22;24237;50.106;20.014;2022-08-23T11:12:50;28.70;99.90
38456;DHT22;24237;50.106;20.014;2022-08-23T11:15:29;28.60;99.90
38456;DHT22;24237;50.106;20.014;2022-08-23T11:17:59;28.40;99.90
38456;DHT22;24237;50.106;20.014;2022-08-23T11:20:58;28.70;99.90
38456;DHT22;24237;50.106;20.014;2022-08-23T11:23:41;28.70;99.90
38456;DHT22;24237;50.106;20.014;2022-08-23T11:26:11;28.70;99.90
38456;DHT22;24237;50.106;20.014;2022-08-23T11:40:08;29.50;99.90
38456;DHT22;24237;50.106;20.014;2022-08-23T11:45:37;30.60;99.90
38456;DHT22;24237;50.106;20.014;2022-08-23T11:48:16;30.00;99.90
38456;DHT22;24237;50.106;20.014;2022-08-23T11:53:34;30.10;99.90
38456;DHT22;24237;50.106;20.014;2022-08-23T11:56:10;30.10;99.90
38456;DHT22;24237;50.106;20.014;2022-08-23T12:01:32;29.70;99.90
38456;DHT22;24237;50.106;20.014;2022-08-23T12:07:42;30.40;99.90
38456;DHT22;24237;50.106;20.014;2022-08-23T12:10:16;30.60;99.90
38456;DHT22;24237;50.106;20.014;2022-08-23T12:16:07;30.40;99.90
38456;DHT22;24237;50.106;20.014;2022-08-23T12:19:03;30.20;99.90
38456;DHT22;24237;50.106;20.014;2022-08-23T12:24:22;30.60;99.90
38456;DHT22;24237;50.106;20.014;2022-08-23T12:27:27;30.30;99.90
38456;DHT22;24237;50.106;20.014;2022-08-23T12:38:31;32.30;99.90
38456;DHT22;24237;50.106;20.014;2022-08-23T12:41:20;33.00;99.90
38456;DHT22;24237;50.106;20.014;2022-08-23T12:44:00;33.30;99.30
38456;DHT22;24237;50.106;20.014;2022-08-23T12:46:32;33.30;99.00
38456;DHT22;24237;50.106;20.014;2022-08-23T12:48:58;33.20;98.90
38456;DHT22;24237;50.106;20.014;2022-08-23T12:51:24;33.20;98.90
38456;DHT22;24237;50.106;20.014;2022-08-23T12:53:50;33.00;99.30
38456;DHT22;24237;50.106;20.014;2022-08-23T12:56:19;32.90;99.60
38456;DHT22;24237;50.106;20.014;2022-08-23T12:58:53;33.00;99.10
38456;DHT22;24237;50.106;20.014;2022-08-23T13:01:33;34.10;98.90
38456;DHT22;24237;50.106;20.014;2022-08-23T13:04:07;34.40;97.60
38456;DHT22;24237;50.106;20.014;2022-08-23T13:06:46;34.40;97.10
38456;DHT22;24237;50.106;20.014;2022-08-23T13:09:28;34.10;97.20
38456;DHT22;24237;50.106;20.014;2022-08-23T13:11:57;33.70;97.50
38456;DHT22;24237;50.106;20.014;2022-08-23T13:14:47;33.70;97.30
38456;DHT22;24237;50.106;20.014;2022-08-23T13:17:37;34.00;96.40
38456;DHT22;24237;50.106;20.014;2022-08-23T13:20:22;34.30;96.10
38456;DHT22;24237;50.106;20.014;2022-08-23T13:22:57;34.90;95.10
38456;DHT22;24237;50.106;20.014;2022-08-23T13:25:30;34.90;95.00
38456;DHT22;24237;50.106;20.014;2022-08-23T13:27:59;34.00;95.70
38456;DHT22;24237;50.106;20.014;2022-08-23T13:30:29;34.00;95.60
38456;DHT22;24237;50.106;20.014;2022-08-23T13:33:18;33.90;95.60
38456;DHT22;24237;50.106;20.014;2022-08-23T13:35:48;34.00;95.30
38456;DHT22;24237;50.106;20.014;2022-08-23T13:38:34;34.50;95.00
38456;DHT22;24237;50.106;20.014;2022-08-23T13:41:06;34.90;94.50
38456;DHT22;24237;50.106;20.014;2022-08-23T13:43:44;34.60;94.10
38456;DHT22;24237;50.106;20.014;2022-08-23T13:46:13;33.80;94.80
38456;DHT22;24237;50.106;20.014;2022-08-23T13:48:53;33.50;95.30
38456;DHT22;24237;50.106;20.014;2022-08-23T13:51:27;33.50;95.70
38456;DHT22;24237;50.106;20.014;2022-08-23T13:53:58;33.70;95.70
38456;DHT22;24237;50.106;20.014;2022-08-23T13:56:24;33.70;95.70
38456;DHT22;24237;50.106;20.014;2022-08-23T13:59:17;34.00;95.10
38456;DHT22;24237;50.106;20.014;2022-08-23T14:01:40;34.40;94.30
38456;DHT22;24237;50.106;20.014;2022-08-23T14:04:06;34.80;93.90
38456;DHT22;24237;50.106;20.014;2022-08-23T14:06:32;34.60;93.80
38456;DHT22;24237;50.106;20.014;2022-08-23T14:09:03;34.30;93.90
38456;DHT22;24237;50.106;20.014;2022-08-23T14:11:31;34.40;94.00
38456;DHT22;24237;50.106;20.014;2022-08-23T14:13:57;35.10;93.40
38456;DHT22;24237;50.106;20.014;2022-08-23T14:16:27;35.20;92.70
38456;DHT22;24237;50.106;20.014;2022-08-23T14:18:56;35.20;92.70
38456;DHT22;24237;50.106;20.014;2022-08-23T14:21:22;34.90;92.70
38456;DHT22;24237;50.106;20.014;2022-08-23T14:23:47;34.90;93.10
38456;DHT22;24237;50.106;20.014;2022-08-23T14:26:16;34.30;93.60
38456;DHT22;24237;50.106;20.014;2022-08-23T14:28:43;34.10;93.70
38456;DHT22;24237;50.106;20.014;2022-08-23T14:31:09;34.20;93.60
38456;DHT22;24237;50.106;20.014;2022-08-23T14:33:38;34.20;94.00
38456;DHT22;24237;50.106;20.014;2022-08-23T14:36:04;33.90;94.10
38456;DHT22;24237;50.106;20.014;2022-08-23T14:38:30;33.30;94.10
38456;DHT22;24237;50.106;20.014;2022-08-23T14:44:18;33.00;94.70
38456;DHT22;24237;50.106;20.014;2022-08-23T14:46:44;32.80;94.80
38456;DHT22;24237;50.106;20.014;2022-08-23T14:49:11;32.60;95.20
38456;DHT22;24237;50.106;20.014;2022-08-23T14:51:58;31.90;95.70
38456;DHT22;24237;50.106;20.014;2022-08-23T14:54:33;31.90;96.20
38456;DHT22;24237;50.106;20.014;2022-08-23T14:56:59;31.30;96.40
38456;DHT22;24237;50.106;20.014;2022-08-23T14:59:24;31.30;96.40
38456;DHT22;24237;50.106;20.014;2022-08-23T15:01:54;31.60;96.40
38456;DHT22;24237;50.106;20.014;2022-08-23T15:04:22;31.80;96.30
38456;DHT22;24237;50.106;20.014;2022-08-23T15:10:13;32.70;95.60
38456;DHT22;24237;50.106;20.014;2022-08-23T15:12:40;32.30;95.60
38456;DHT22;24237;50.106;20.014;2022-08-23T15:15:12;31.80;95.70
38456;DHT22;24237;50.106;20.014;2022-08-23T15:17:46;31.40;96.30
38456;DHT22;24237;50.106;20.014;2022-08-23T15:20:12;31.50;96.60
38456;DHT22;24237;50.106;20.014;2022-08-23T15:22:38;32.00;96.20
38456;DHT22;24237;50.106;20.014;2022-08-23T15:25:04;32.60;95.40
38456;DHT22;24237;50.106;20.014;2022-08-23T15:27:30;33.10;94.90
38456;DHT22;24237;50.106;20.014;2022-08-23T15:29:56;33.20;94.90
38456;DHT22;24237;50.106;20.014;2022-08-23T15:32:22;33.20;94.60
38456;DHT22;24237;50.106;20.014;2022-08-23T15:34:48;33.50;94.80
38456;DHT22;24237;50.106;20.014;2022-08-23T15:37:17;33.70;94.50
38456;DHT22;24237;50.106;20.014;2022-08-23T15:40:15;33.30;94.10
38456;DHT22;24237;50.106;20.014;2022-08-23T15:42:43;33.20;94.40
38456;DHT22;24237;50.106;20.014;2022-08-23T15:45:09;32.70;94.40
38456;DHT22;24237;50.106;20.014;2022-08-23T15:47:50;32.40;94.60
38456;DHT22;24237;50.106;20.014;2022-08-23T15:50:27;32.50;94.80
38456;DHT22;24237;50.106;20.014;2022-08-23T15:52:55;32.40;95.00
38456;DHT22;24237;50.106;20.014;2022-08-23T15:55:22;32.30;95.50
38456;DHT22;24237;50.106;20.014;2022-08-23T15:57:50;31.80;95.90
38456;DHT22;24237;50.106;20.014;2022-08-23T16:00:24;31.50;96.30
38456;DHT22;24237;50.106;20.014;2022-08-23T16:02:51;31.00;96.70
38456;DHT22;24237;50.106;20.014;2022-08-23T16:05:18;31.00;96.90
38456;DHT22;24237;50.106;20.014;2022-08-23T16:07:44;31.00;97.00
38456;DHT22;24237;50.106;20.014;2022-08-23T16:10:12;30.60;97.40
38456;DHT22;24237;50.106;20.014;2022-08-23T16:12:43;30.30;98.10
38456;DHT22;24237;50.106;20.014;2022-08-23T16:15:09;30.20;98.10
38456;DHT22;24237;50.106;20.014;2022-08-23T16:17:35;30.20;98.00
38456;DHT22;24237;50.106;20.014;2022-08-23T16:20:01;30.10;98.30
38456;DHT22;24237;50.106;20.014;2022-08-23T16:22:30;29.90;98.60
38456;DHT22;24237;50.106;20.014;2022-08-23T16:24:59;29.70;99.10
38456;DHT22;24237;50.106;20.014;2022-08-23T16:27:26;29.40;99.40
38456;DHT22;24237;50.106;20.014;2022-08-23T16:29:52;29.20;99.80
38456;DHT22;24237;50.106;20.014;2022-08-23T16:32:17;29.10;99.90
38456;DHT22;24237;50.106;20.014;2022-08-23T16:34:46;29.10;99.90
38456;DHT22;24237;50.106;20.014;2022-08-23T16:37:12;29.10;99.90
38456;DHT22;24237;50.106;20.014;2022-08-23T16:39:38;29.00;99.90
38456;DHT22;24237;50.106;20.014;2022-08-23T16:42:05;28.80;99.90
38456;DHT22;24237;50.106;20.014;2022-08-23T16:44:32;28.70;99.90
38456;DHT22;24237;50.106;20.014;2022-08-23T16:47:17;28.70;99.90
38456;DHT22;24237;50.106;20.014;2022-08-23T16:49:57;28.60;99.90
38456;DHT22;24237;50.106;20.014;2022-08-23T16:52:26;28.50;99.90
38456;DHT22;24237;50.106;20.014;2022-08-23T16:54:51;28.50;99.90
38456;DHT22;24237;50.106;20.014;2022-08-23T16:57:26;28.40;99.90
38456;DHT22;24237;50.106;20.014;2022-08-23T16:59:55;28.30;99.90
38456;DHT22;24237;50.106;20.014;2022-08-23T17:02:32;28.00;99.90
38456;DHT22;24237;50.106;20.014;2022-08-23T17:04:59;28.00;99.90
38456;DHT22;24237;50.106;20.014;2022-08-23T17:07:25;28.10;99.90
38456;DHT22;24237;50.106;20.014;2022-08-23T17:10:07;27.90;99.90
38456;DHT22;24237;50.106;20.014;2022-08-23T17:12:35;27.90;99.90
38456;DHT22;24237;50.106;20.014;2022-08-23T17:15:35;27.70;99.90